Time;durP1;ratioP1;P1;durP2;ratioP2;P2;SDS_P1;SDS_P2;PMS_P1;PMS_P2;Temp;Humidity;BMP_temperature;BMP_pressure;BME280_temperature;BME280_humidity;BME280_pressure;Samples;Min_cycle;Max_cycle;Signal;HPM_P1;HPM_P2
2022/06/04 00:01:40;;;;;;;7.35;2.25;;;;;;;17.18;59.73;101453.31;5117224;27;20035;-81
2022/06/04 00:04:06;;;;;;;3.97;1.95;;;;;;;17.21;59.86;101460.81;5113683;27;20471;-76
2022/06/04 00:06:31;;;;;;;3.63;2.00;;;;;;;17.19;59.97;101463.59;5094483;27;20039;-77
2022/06/04 00:08:57;;;;;;;4.72;2.05;;;;;;;17.16;59.84;101463.16;5103454;28;20039;-76
2022/06/04 00:16:51;;;;;;;8.57;2.45;;;;;;;16.96;60.24;101436.72;5108964;27;20092;-77
2022/06/04 00:19:16;;;;;;;8.35;2.83;;;;;;;16.90;60.49;101436.47;5118503;27;20600;-76
2022/06/04 00:21:43;;;;;;;6.45;2.10;;;;;;;16.89;60.61;101441.88;5104190;27;20040;-76
2022/06/04 00:24:08;;;;;;;5.78;2.28;;;;;;;16.88;60.37;101448.94;5119861;27;20276;-76
2022/06/04 00:26:34;;;;;;;6.53;2.33;;;;;;;16.80;60.47;101443.75;5106431;27;20742;-76
2022/06/04 00:28:59;;;;;;;5.55;2.35;;;;;;;16.76;60.71;101457.38;5104028;28;20031;-76
2022/06/04 00:31:25;;;;;;;5.28;2.10;;;;;;;16.77;60.90;101451.97;5117777;27;20034;-76
2022/06/04 00:33:50;;;;;;;8.45;2.38;;;;;;;16.80;61.14;101445.56;5106874;27;20510;-76
2022/06/04 00:36:16;;;;;;;7.82;2.17;;;;;;;16.75;60.87;101438.25;5107672;27;20038;-76
2022/06/04 00:38:44;;;;;;;4.45;2.08;;;;;;;16.66;61.01;101447.19;5120604;27;20386;-77
2022/06/04 00:41:31;;;;;;;3.70;2.35;;;;;;;16.59;61.22;101451.50;5104042;27;20038;-76
2022/06/04 00:44:09;;;;;;;4.82;2.25;;;;;;;16.59;61.49;101467.22;5102230;27;20039;-76
2022/06/04 00:46:40;;;;;;;6.72;3.05;;;;;;;16.61;61.38;101473.09;5093149;27;20155;-76
2022/06/04 00:49:13;;;;;;;3.92;2.28;;;;;;;16.61;61.56;101481.75;5104006;27;20039;-76
2022/06/04 00:51:41;;;;;;;;;;;;;;;16.54;61.91;101476.44;5104223;27;20085;-77
2022/06/04 00:54:07;;;;;;;5.38;2.33;;;;;;;16.52;61.73;101472.38;5088501;27;19922;-76
2022/06/04 00:56:58;;;;;;;7.20;2.47;;;;;;;16.48;61.86;101473.69;5112915;27;20483;-76
2022/06/04 01:00:00;;;;;;;4.13;2.35;;;;;;;16.41;62.16;101478.03;5102124;27;20046;-76
2022/06/04 01:03:01;;;;;;;8.90;2.95;;;;;;;16.32;62.19;101485.94;5119319;27;20035;-76
2022/06/04 01:05:52;;;;;;;8.15;2.40;;;;;;;16.33;62.01;101479.72;5121441;27;20027;-76
2022/06/04 01:08:39;;;;;;;7.68;2.50;;;;;;;16.31;62.19;101484.34;5070123;27;20043;-76
2022/06/04 01:11:05;;;;;;;6.30;2.35;;;;;;;16.24;62.57;101495.69;5106869;27;20471;-76
2022/06/04 01:14:16;;;;;;;9.60;3.13;;;;;;;16.16;63.15;101501.78;5088376;27;20134;-77
2022/06/04 01:17:02;;;;;;;5.93;2.58;;;;;;;16.11;63.24;101496.28;5101936;27;20512;-76
2022/06/04 01:20:11;;;;;;;7.25;2.67;;;;;;;16.12;63.22;101508.34;5106673;27;20023;-76
2022/06/04 01:22:46;;;;;;;4.20;2.28;;;;;;;16.01;63.54;101512.22;5033467;28;20033;-76
2022/06/04 01:25:47;;;;;;;5.57;2.60;;;;;;;16.04;63.55;101511.84;5095123;27;20043;-76
2022/06/04 01:28:16;;;;;;;7.10;2.47;;;;;;;16.02;63.66;101518.25;5102923;27;20080;-76
2022/06/04 01:30:55;;;;;;;9.65;3.65;;;;;;;15.99;63.61;101526.44;5117802;27;20061;-76
2022/06/04 01:33:25;;;;;;;4.13;2.53;;;;;;;16.00;63.96;101525.47;5107223;27;20398;-76
2022/06/04 01:36:06;;;;;;;6.07;2.70;;;;;;;16.01;64.16;101520.06;5115889;27;20067;-76
2022/06/04 01:38:46;;;;;;;4.65;2.63;;;;;;;15.90;63.92;101504.78;5120829;27;20038;-76
2022/06/04 01:41:19;;;;;;;7.18;2.80;;;;;;;15.83;64.36;101511.69;5105992;27;20041;-77
2022/06/04 01:44:22;;;;;;;4.47;2.78;;;;;;;15.74;64.70;101509.09;5118516;27;20545;-76
2022/06/04 01:46:51;;;;;;;5.60;2.53;;;;;;;15.74;64.85;101510.91;5025691;28;20739;-76
2022/06/04 01:49:36;;;;;;;5.75;2.97;;;;;;;15.64;65.09;101510.28;5104171;27;20035;-76
2022/06/04 01:52:08;;;;;;;9.30;2.95;;;;;;;15.63;64.98;101513.88;5104569;27;20047;-76
2022/06/04 01:54:41;;;;;;;5.50;3.00;;;;;;;15.51;65.26;101514.25;5116274;27;20126;-76
2022/06/04 01:57:20;;;;;;;4.05;2.78;;;;;;;15.50;65.56;101522.25;5100195;27;20512;-76
2022/06/04 01:59:51;;;;;;;8.65;3.40;;;;;;;15.52;65.49;101518.50;5117037;27;20043;-77
2022/06/04 02:02:26;;;;;;;9.48;2.83;;;;;;;15.42;65.99;101510.06;5116697;27;20050;-77
2022/06/04 02:04:59;;;;;;;5.68;2.95;;;;;;;15.39;66.26;101515.63;5121840;27;20091;-76
2022/06/04 02:07:32;;;;;;;5.93;2.90;;;;;;;15.46;66.10;101508.72;5101619;27;20464;-77
2022/06/04 02:10:13;;;;;;;5.50;2.83;;;;;;;15.49;66.22;101518.03;5119833;27;20368;-77
2022/06/04 02:12:41;;;;;;;6.88;3.10;;;;;;;15.47;66.22;101512.97;5100207;27;20242;-77
2022/06/04 02:15:12;;;;;;;10.52;4.35;;;;;;;15.48;66.31;101512.00;5121400;27;20031;-76
2022/06/04 02:17:41;;;;;;;7.50;3.47;;;;;;;15.38;66.65;101512.19;5100598;27;20044;-76
2022/06/04 02:20:08;;;;;;;11.23;4.05;;;;;;;15.43;66.60;101503.06;5121547;27;20038;-77
2022/06/04 02:22:34;;;;;;;6.35;3.40;;;;;;;15.42;66.53;101501.41;5092023;27;20462;-78
2022/06/04 02:25:01;;;;;;;13.18;4.88;;;;;;;15.47;66.55;101507.75;5121680;27;20154;-77
2022/06/04 02:27:27;;;;;;;8.43;3.90;;;;;;;15.41;66.83;101489.31;5122663;27;20035;-76
2022/06/04 02:29:53;;;;;;;7.65;3.53;;;;;;;15.34;67.11;101491.81;5090687;27;20023;-76
2022/06/04 02:32:35;;;;;;;7.35;3.80;;;;;;;15.37;67.14;101499.31;5106689;27;20037;-77
2022/06/04 02:35:24;;;;;;;11.93;3.53;;;;;;;15.31;67.41;101495.59;5117314;27;20478;-76
2022/06/04 02:37:52;;;;;;;12.15;4.10;;;;;;;15.32;67.51;101507.66;5096013;27;20066;-77
2022/06/04 02:40:24;;;;;;;13.13;4.18;;;;;;;15.28;67.75;101522.03;5103977;27;20080;-76
2022/06/04 02:43:01;;;;;;;7.60;3.50;;;;;;;15.31;67.85;101516.50;5118471;27;20031;-76
2022/06/04 02:46:14;;;;;;;7.30;4.13;;;;;;;15.33;67.97;101503.22;5123820;27;20141;-76
2022/06/04 02:48:42;;;;;;;;;;;;;;;15.28;68.01;101495.13;5095792;27;20047;-77
2022/06/04 02:51:14;;;;;;;8.85;4.55;;;;;;;15.24;68.39;101489.41;5107340;27;19941;-76
2022/06/04 02:53:41;;;;;;;6.25;3.65;;;;;;;15.24;68.35;101472.91;5107023;27;20043;-76
2022/06/04 02:56:12;;;;;;;7.78;4.43;;;;;;;15.25;68.46;101467.50;5107186;27;20047;-76
2022/06/04 02:58:40;;;;;;;7.57;4.28;;;;;;;15.23;68.43;101460.84;5104255;27;20035;-76
2022/06/04 03:01:09;;;;;;;9.15;4.43;;;;;;;15.18;68.47;101466.56;5088958;27;21049;-77
2022/06/04 03:03:35;;;;;;;8.38;4.38;;;;;;;15.16;68.17;101471.97;5114676;27;20123;-76
2022/06/04 03:06:04;;;;;;;7.50;3.90;;;;;;;15.16;68.08;101469.38;5103856;27;20031;-77
2022/06/04 03:08:33;;;;;;;5.43;3.60;;;;;;;15.10;68.51;101475.25;5122309;27;20031;-76
2022/06/04 03:10:58;;;;;;;8.68;4.07;;;;;;;15.12;68.71;101473.28;5086498;27;20051;-76
2022/06/04 03:13:24;;;;;;;6.28;3.65;;;;;;;15.07;68.58;101465.16;5118927;27;20062;-77
2022/06/04 03:15:50;;;;;;;8.25;4.07;;;;;;;14.97;69.07;101467.97;5116585;27;20130;-76
2022/06/04 03:18:16;;;;;;;7.35;3.65;;;;;;;14.90;69.58;101472.22;5117457;27;20479;-77
2022/06/04 03:20:42;;;;;;;7.18;4.00;;;;;;;14.93;69.29;101460.63;5120534;27;20020;-76
2022/06/04 03:23:09;;;;;;;6.45;4.10;;;;;;;15.01;68.78;101471.03;5089348;27;20106;-76
2022/06/04 03:25:36;;;;;;;7.82;3.83;;;;;;;14.90;69.29;101467.00;5114082;27;20117;-76
2022/06/04 03:28:03;;;;;;;6.25;3.85;;;;;;;14.94;68.83;101472.72;5084233;27;20042;-77
2022/06/04 03:30:29;;;;;;;8.48;4.20;;;;;;;14.90;68.99;101469.63;5119128;27;20098;-76
2022/06/04 03:32:55;;;;;;;11.50;4.28;;;;;;;14.95;69.12;101466.50;5099258;27;20160;-76
2022/06/04 03:35:21;;;;;;;10.77;4.20;;;;;;;14.87;69.20;101484.81;5099204;27;20066;-76
2022/06/04 03:37:46;;;;;;;5.45;3.63;;;;;;;14.85;69.29;101484.16;5096193;27;20035;-76
2022/06/04 03:40:12;;;;;;;6.70;4.00;;;;;;;14.84;69.64;101479.91;5119188;27;20030;-76
2022/06/04 03:42:38;;;;;;;8.55;3.50;;;;;;;14.82;69.72;101487.91;5098531;27;20035;-76
2022/06/04 03:45:06;;;;;;;16.50;4.22;;;;;;;14.79;69.51;101485.63;5083276;27;20103;-76
2022/06/04 03:47:38;;;;;;;5.80;4.05;;;;;;;14.77;69.68;101493.63;5101138;27;20064;-78
2022/06/04 03:50:06;;;;;;;7.38;4.07;;;;;;;14.77;69.76;101496.25;5117537;27;20027;-76
2022/06/04 03:52:32;;;;;;;11.00;4.68;;;;;;;14.81;69.32;101498.53;5084558;27;20027;-77
2022/06/04 03:54:57;;;;;;;9.18;3.50;;;;;;;14.80;69.55;101502.91;5116440;27;20109;-77
2022/06/04 03:57:41;;;;;;;7.68;4.50;;;;;;;14.84;69.67;101503.41;5095754;27;20110;-76
2022/06/04 04:00:22;;;;;;;6.43;3.70;;;;;;;14.82;69.74;101503.56;5119130;27;20031;-76
2022/06/04 04:02:57;;;;;;;8.98;4.13;;;;;;;14.84;69.72;101501.59;5117655;27;20073;-76
2022/06/04 04:05:29;;;;;;;9.68;4.65;;;;;;;14.80;69.52;101508.13;5115717;27;21722;-76
2022/06/04 04:07:56;;;;;;;8.30;3.90;;;;;;;14.73;69.84;101518.44;5097638;28;20142;-76
2022/06/04 04:10:23;;;;;;;8.82;4.40;;;;;;;14.75;69.56;101521.69;5098977;27;20035;-76
2022/06/04 04:12:49;;;;;;;16.02;4.50;;;;;;;14.81;69.62;101520.22;5115319;27;20043;-77
2022/06/04 04:15:14;;;;;;;10.18;5.03;;;;;;;14.74;69.48;101514.03;5102569;28;20041;-76
2022/06/04 04:17:41;;;;;;;9.73;4.68;;;;;;;14.70;70.01;101517.97;5097732;27;20042;-76
2022/06/04 04:20:16;;;;;;;9.73;4.60;;;;;;;14.68;70.24;101522.53;5118942;27;20064;-76
2022/06/04 04:22:43;;;;;;;10.88;5.45;;;;;;;14.72;69.98;101524.63;5099943;27;20039;-76
2022/06/04 04:25:10;;;;;;;8.48;4.63;;;;;;;14.73;70.19;101528.06;5117521;27;20052;-76
2022/06/04 04:27:36;;;;;;;8.50;4.43;;;;;;;14.70;70.34;101524.00;5113008;27;20470;-76
2022/06/04 04:30:04;;;;;;;11.90;4.22;;;;;;;14.70;70.53;101531.00;5117935;27;20096;-77
2022/06/04 04:32:31;;;;;;;11.25;4.95;;;;;;;14.75;69.83;101529.53;5119988;27;20122;-76
2022/06/04 04:34:57;;;;;;;10.57;4.32;;;;;;;14.77;70.33;101526.75;5079792;28;20507;-76
2022/06/04 04:37:23;;;;;;;10.30;5.15;;;;;;;14.72;70.12;101535.06;5122156;27;20039;-76
2022/06/04 04:39:48;;;;;;;7.75;4.50;;;;;;;14.77;70.00;101532.78;5103845;27;20076;-77
2022/06/04 04:42:14;;;;;;;11.30;4.32;;;;;;;14.75;69.49;101534.75;5102712;27;20035;-76
2022/06/04 04:44:39;;;;;;;13.90;5.40;;;;;;;14.82;69.42;101532.28;5118674;27;20035;-77
2022/06/04 04:47:05;;;;;;;8.63;4.95;;;;;;;14.85;69.69;101536.38;5103643;27;20043;-76
2022/06/04 04:49:31;;;;;;;7.25;4.18;;;;;;;14.84;69.88;101538.16;5102738;27;20053;-76
2022/06/04 04:51:56;;;;;;;8.27;4.68;;;;;;;14.81;70.01;101529.88;5107590;27;20384;-76
2022/06/04 04:54:21;;;;;;;9.10;5.00;;;;;;;14.87;70.38;101537.81;5118128;27;20050;-77
2022/06/04 04:56:47;;;;;;;5.47;4.18;;;;;;;14.91;69.44;101528.69;5117247;27;20038;-76
2022/06/04 04:59:13;;;;;;;11.98;4.75;;;;;;;14.92;69.78;101527.72;5119232;27;20669;-76
2022/06/04 05:01:38;;;;;;;7.10;4.38;;;;;;;14.97;69.09;101535.88;5117689;27;20063;-76
2022/06/04 05:04:04;;;;;;;8.18;4.78;;;;;;;15.09;68.90;101528.47;5121346;27;20043;-77
2022/06/04 05:06:30;;;;;;;9.77;4.53;;;;;;;15.09;68.16;101533.72;5095471;28;20047;-76
2022/06/04 05:08:56;;;;;;;10.82;5.50;;;;;;;15.12;68.66;101538.56;5115480;27;20027;-76
2022/06/04 05:11:29;;;;;;;7.50;4.55;;;;;;;15.13;68.96;101542.03;5087673;28;20085;-77
2022/06/04 05:13:56;;;;;;;10.00;5.13;;;;;;;15.13;68.87;101548.06;5095765;28;20027;-76
2022/06/04 05:16:25;;;;;;;10.05;4.70;;;;;;;15.11;69.01;101562.28;5123194;27;20529;-77
2022/06/04 05:18:51;;;;;;;9.38;4.60;;;;;;;15.19;68.60;101554.41;5110302;27;20080;-76
2022/06/04 05:21:26;;;;;;;9.23;4.40;;;;;;;15.23;68.67;101554.88;5127274;27;20061;-77
2022/06/04 05:23:55;;;;;;;10.75;5.25;;;;;;;15.23;68.67;101550.47;5105938;27;20313;-76
2022/06/04 05:26:23;;;;;;;11.65;5.70;;;;;;;15.31;68.63;101552.22;5121681;27;20344;-76
2022/06/04 05:28:51;;;;;;;8.48;5.00;;;;;;;15.27;69.21;101564.81;5107137;27;20516;-76
2022/06/04 05:31:17;;;;;;;9.35;5.55;;;;;;;15.28;67.93;101569.06;5090986;27;20050;-77
2022/06/04 05:33:43;;;;;;;10.43;4.95;;;;;;;15.26;68.15;101570.22;5106884;27;20479;-76
2022/06/04 05:36:08;;;;;;;10.48;5.07;;;;;;;15.36;68.35;101574.25;5104330;27;20039;-76
2022/06/04 05:38:34;;;;;;;9.25;4.85;;;;;;;15.34;67.70;101578.84;5101290;27;20047;-77
2022/06/04 05:41:03;;;;;;;8.57;5.05;;;;;;;15.36;68.34;101574.25;5121507;27;20038;-76
2022/06/04 05:43:29;;;;;;;6.45;4.68;;;;;;;15.34;68.96;101572.81;5123043;27;20322;-77
2022/06/04 05:45:59;;;;;;;7.85;5.30;;;;;;;15.40;68.49;101574.75;5125820;27;20129;-77
2022/06/04 05:48:25;;;;;;;11.18;5.20;;;;;;;15.45;68.12;101569.84;5121736;27;20361;-77
2022/06/04 05:50:52;;;;;;;8.60;5.00;;;;;;;15.49;68.12;101568.50;5120339;27;20042;-76
2022/06/04 05:53:17;;;;;;;10.50;5.15;;;;;;;15.45;67.59;101575.06;5121957;27;20035;-77
2022/06/04 05:55:43;;;;;;;9.57;5.10;;;;;;;15.41;67.89;101579.00;5103086;27;20034;-76
2022/06/04 05:58:08;;;;;;;11.10;5.47;;;;;;;15.43;67.70;101579.63;5118923;27;20518;-77
2022/06/04 06:00:34;;;;;;;9.35;5.25;;;;;;;15.57;67.42;101586.75;5091496;27;20031;-77
2022/06/04 06:02:59;;;;;;;8.63;5.10;;;;;;;15.63;67.02;101584.44;5103899;27;20111;-76
2022/06/04 06:05:25;;;;;;;10.05;4.90;;;;;;;15.63;67.11;101592.28;5123093;27;20076;-77
2022/06/04 06:07:50;;;;;;;6.80;4.40;;;;;;;15.64;67.79;101594.75;5116762;27;20039;-76
2022/06/04 06:10:16;;;;;;;10.18;5.28;;;;;;;15.74;67.02;101586.72;5102104;27;20042;-76
2022/06/04 06:12:42;;;;;;;10.65;5.25;;;;;;;15.81;66.62;101589.47;5105286;27;20046;-77
2022/06/04 06:15:08;;;;;;;8.25;4.50;;;;;;;15.91;66.14;101600.53;5104749;27;20038;-77
2022/06/04 06:17:33;;;;;;;5.90;4.78;;;;;;;15.97;66.58;101597.22;5093026;27;20533;-77
2022/06/04 06:19:59;;;;;;;7.57;4.40;;;;;;;16.17;65.91;101588.94;5107772;27;20030;-77
2022/06/04 06:22:24;;;;;;;9.27;4.35;;;;;;;16.39;65.93;101587.28;5118877;27;20076;-76
2022/06/04 06:24:50;;;;;;;9.65;4.95;;;;;;;16.50;64.59;101590.34;5120201;27;20043;-76
2022/06/04 06:27:15;;;;;;;8.15;4.50;;;;;;;16.73;64.40;101586.88;5117684;27;20090;-76
2022/06/04 06:29:40;;;;;;;8.38;5.07;;;;;;;16.78;62.97;101589.75;5124650;27;20392;-77
2022/06/04 06:32:06;;;;;;;9.15;4.78;;;;;;;16.76;63.69;101588.31;5101080;27;20036;-76
2022/06/04 06:34:32;;;;;;;9.45;5.38;;;;;;;16.74;63.69;101589.31;5119354;27;20037;-77
2022/06/04 06:36:57;;;;;;;7.60;5.05;;;;;;;16.88;63.97;101592.19;5103092;27;20039;-76
2022/06/04 06:39:23;;;;;;;12.75;4.90;;;;;;;16.89;63.00;101591.97;5113119;27;20038;-76
2022/06/04 06:41:48;;;;;;;9.18;4.85;;;;;;;16.90;62.75;101598.03;5088525;27;20039;-76
2022/06/04 06:44:14;;;;;;;9.95;5.18;;;;;;;16.99;63.23;101607.47;5086633;27;20031;-75
2022/06/04 06:46:43;;;;;;;9.80;4.47;;;;;;;17.09;62.32;101623.72;5101015;27;20463;-76
2022/06/04 06:49:13;;;;;;;10.50;5.10;;;;;;;17.06;63.23;101618.81;5120242;27;20039;-75
2022/06/04 06:51:43;;;;;;;11.38;5.10;;;;;;;16.87;62.72;101622.78;5122721;27;20300;-77
2022/06/04 06:54:09;;;;;;;8.50;5.60;;;;;;;16.90;63.11;101617.19;5105568;27;20775;-76
2022/06/04 06:56:38;;;;;;;13.52;6.85;;;;;;;16.91;62.93;101629.31;5122003;27;20039;-77
2022/06/04 06:59:04;;;;;;;23.75;11.50;;;;;;;16.82;63.43;101632.97;5104069;27;20039;-76
2022/06/04 07:01:31;;;;;;;13.45;5.95;;;;;;;16.84;63.27;101633.63;5106063;27;20035;-76
2022/06/04 07:03:57;;;;;;;9.95;5.53;;;;;;;16.90;63.82;101646.00;5098751;27;20035;-76
2022/06/04 07:06:37;;;;;;;9.20;4.75;;;;;;;16.96;63.31;101648.91;5122255;27;20083;-76
2022/06/04 07:09:06;;;;;;;11.48;5.90;;;;;;;17.10;62.98;101648.09;5121657;27;20069;-76
2022/06/04 07:11:32;;;;;;;8.77;4.70;;;;;;;17.17;63.08;101635.13;5105635;27;20223;-77
2022/06/04 07:13:58;;;;;;;10.45;5.47;;;;;;;17.04;63.19;101644.38;5101317;27;21596;-77
2022/06/04 07:16:23;;;;;;;13.93;5.50;;;;;;;17.15;63.11;101645.78;5121842;27;20586;-77
2022/06/04 07:18:49;;;;;;;13.32;5.72;;;;;;;17.29;62.82;101642.38;5121154;27;20118;-76
2022/06/04 07:21:16;;;;;;;10.68;4.72;;;;;;;17.26;62.64;101637.47;5118515;27;20027;-76
2022/06/04 07:23:42;;;;;;;11.90;5.28;;;;;;;17.38;63.54;101637.81;5105174;27;20026;-76
2022/06/04 07:26:08;;;;;;;9.32;5.28;;;;;;;17.69;61.97;101637.66;5101316;27;20509;-76
2022/06/04 07:28:36;;;;;;;9.30;5.30;;;;;;;17.69;61.63;101644.72;5122893;27;20042;-77
2022/06/04 07:31:04;;;;;;;12.70;5.53;;;;;;;17.59;62.18;101634.47;5119252;27;20022;-77
2022/06/04 07:33:30;;;;;;;11.50;5.32;;;;;;;17.65;62.49;101638.19;5104348;27;20077;-77
2022/06/04 07:35:55;;;;;;;7.18;5.30;;;;;;;17.60;61.93;101637.94;5117594;27;20499;-76
2022/06/04 07:38:20;;;;;;;10.75;5.40;;;;;;;17.58;62.67;101634.69;5106084;27;20049;-77
2022/06/04 07:40:46;;;;;;;9.30;5.22;;;;;;;17.56;61.89;101639.28;5103357;27;20031;-76
2022/06/04 07:43:13;;;;;;;9.35;5.70;;;;;;;17.60;62.56;101637.94;5118378;27;20035;-77
2022/06/04 07:45:39;;;;;;;9.02;5.53;;;;;;;17.73;61.88;101635.47;5115359;27;20045;-76
2022/06/04 07:48:06;;;;;;;9.02;5.47;;;;;;;17.75;61.36;101640.53;5119349;27;20475;-77
2022/06/04 07:50:32;;;;;;;11.95;5.63;;;;;;;17.86;61.64;101643.53;5098567;27;20106;-77
2022/06/04 07:52:58;;;;;;;11.35;6.28;;;;;;;17.81;61.73;101648.47;5114414;27;20062;-77
2022/06/04 07:55:25;;;;;;;9.40;5.68;;;;;;;17.71;61.22;101650.56;5098779;27;20463;-77
2022/06/04 07:57:50;;;;;;;9.70;5.38;;;;;;;17.69;61.94;101642.88;5093594;27;20505;-77
2022/06/04 08:00:16;;;;;;;11.93;5.75;;;;;;;17.81;61.04;101640.59;5096246;27;20375;-77
2022/06/04 08:02:45;;;;;;;9.70;5.47;;;;;;;17.85;61.39;101641.09;5097273;27;20031;-77
2022/06/04 08:05:12;;;;;;;11.65;5.35;;;;;;;17.95;61.62;101640.78;5121231;27;20390;-77
2022/06/04 08:07:38;;;;;;;12.55;5.90;;;;;;;18.02;61.67;101637.25;5095153;27;20462;-77
2022/06/04 08:10:05;;;;;;;11.30;5.30;;;;;;;18.09;61.24;101630.25;5088921;28;20039;-77
2022/06/04 08:12:33;;;;;;;7.35;4.53;;;;;;;18.26;61.41;101624.78;5100467;27;20046;-76
2022/06/04 08:14:59;;;;;;;13.07;5.10;;;;;;;18.37;60.94;101618.22;5102301;28;20030;-77
2022/06/04 08:17:25;;;;;;;12.15;6.28;;;;;;;18.54;60.19;101610.91;5099894;27;20042;-77
2022/06/04 08:19:51;;;;;;;8.93;4.75;;;;;;;18.53;60.19;101607.44;5101976;27;20463;-77
2022/06/04 08:22:17;;;;;;;8.05;5.57;;;;;;;18.51;60.00;101611.28;5103684;27;20052;-76
2022/06/04 08:24:42;;;;;;;11.98;5.93;;;;;;;18.56;60.54;101614.16;5116518;27;20031;-76
2022/06/04 08:27:08;;;;;;;12.60;6.13;;;;;;;18.65;59.85;101623.53;5100063;28;20050;-77
2022/06/04 08:29:37;;;;;;;9.48;5.25;;;;;;;18.59;60.44;101621.63;5115702;27;20023;-77
2022/06/04 08:32:04;;;;;;;6.60;4.40;;;;;;;18.72;59.91;101620.94;5089841;28;20126;-77
2022/06/04 08:34:31;;;;;;;8.85;4.85;;;;;;;18.80;59.53;101626.91;5120467;27;20031;-77
2022/06/04 08:36:58;;;;;;;11.60;5.85;;;;;;;18.71;59.11;101629.84;5080279;28;20441;-77
2022/06/04 08:39:24;;;;;;;10.10;5.93;;;;;;;18.74;59.69;101632.06;5104248;27;20034;-77
2022/06/04 08:42:18;;;;;;;12.13;6.32;;;;;;;18.93;59.69;101625.38;5089009;27;20424;-76
2022/06/04 08:44:48;;;;;;;11.05;6.15;;;;;;;19.07;58.72;101629.72;5102234;27;20067;-76
2022/06/04 08:47:25;;;;;;;10.10;5.60;;;;;;;19.12;59.35;101626.50;5121221;27;20068;-77
2022/06/04 08:49:58;;;;;;;17.63;7.50;;;;;;;19.25;58.52;101618.72;5117674;27;20615;-76
2022/06/04 08:52:35;;;;;;;9.15;6.03;;;;;;;19.11;58.05;101628.31;5123018;27;20031;-77
2022/06/04 08:57:47;;;;;;;16.17;7.32;;;;;;;19.18;58.59;101628.38;5105947;27;20050;-76
2022/06/04 09:00:16;;;;;;;13.75;6.97;;;;;;;19.05;58.41;101626.47;5093144;27;20036;-76
2022/06/04 09:03:09;;;;;;;12.70;6.00;;;;;;;19.21;58.33;101625.34;5104318;27;20491;-77
2022/06/04 09:05:46;;;;;;;14.75;6.57;;;;;;;19.25;58.02;101622.16;5122221;27;20039;-77
2022/06/04 09:08:28;;;;;;;12.27;5.93;;;;;;;19.41;57.61;101636.78;5125134;27;20031;-77
2022/06/04 09:10:58;;;;;;;10.98;5.55;;;;;;;19.41;56.62;101644.69;5122218;27;20023;-77
2022/06/04 09:13:42;;;;;;;14.52;5.85;;;;;;;19.43;57.14;101647.13;5103360;27;20442;-77
2022/06/04 09:16:31;;;;;;;9.75;5.63;;;;;;;19.47;57.07;101665.97;5107342;27;20490;-77
2022/06/04 09:18:59;;;;;;;11.98;6.45;;;;;;;19.39;57.65;101664.31;5092979;27;20100;-77
2022/06/04 09:21:35;;;;;;;13.45;7.00;;;;;;;19.46;57.96;101659.91;5103163;27;20035;-77
2022/06/04 09:24:01;;;;;;;11.48;5.47;;;;;;;19.61;57.54;101655.31;5103365;27;20031;-76
2022/06/04 09:26:33;;;;;;;7.25;4.70;;;;;;;19.94;57.49;101659.94;5102019;27;20466;-76
2022/06/04 09:29:26;;;;;;;9.27;4.88;;;;;;;20.26;56.57;101660.22;5110447;27;20031;-77
2022/06/04 09:31:58;;;;;;;;;;;;;;;20.72;54.40;101661.31;5102968;27;20045;-77
2022/06/04 09:34:26;;;;;;;9.77;5.53;;;;;;;21.00;53.04;101661.09;5121913;27;20001;-76
2022/06/04 09:36:52;;;;;;;10.52;5.32;;;;;;;21.17;52.48;101659.66;5104815;27;20050;-77
2022/06/04 09:39:27;;;;;;;12.50;5.55;;;;;;;21.37;53.31;101664.09;5118635;27;20507;-77
2022/06/04 09:42:05;;;;;;;11.73;5.50;;;;;;;21.58;51.78;101657.75;5122078;27;20031;-77
2022/06/04 09:44:35;;;;;;;10.23;5.07;;;;;;;21.91;50.72;101662.09;5093179;27;20034;-76
2022/06/04 09:47:20;;;;;;;16.73;6.07;;;;;;;21.84;50.63;101664.75;5120288;27;20433;-77
2022/06/04 09:49:52;;;;;;;18.98;6.32;;;;;;;21.91;50.47;101662.09;5121709;27;20068;-77
2022/06/04 09:52:21;;;;;;;10.88;5.55;;;;;;;22.16;49.59;101643.69;5104682;27;20132;-77
2022/06/04 09:54:53;;;;;;;10.27;5.68;;;;;;;22.26;50.26;101649.31;5086620;27;20032;-75
2022/06/04 09:57:35;;;;;;;11.80;5.80;;;;;;;22.40;50.20;101652.69;5102273;27;20403;-75
2022/06/04 10:00:05;;;;;;;12.48;5.43;;;;;;;22.50;49.21;101649.56;5103356;27;20335;-76
2022/06/04 10:02:32;;;;;;;9.75;5.57;;;;;;;22.19;50.15;101647.72;5120180;27;20035;-77
2022/06/04 10:05:06;;;;;;;9.85;5.95;;;;;;;22.29;50.11;101651.53;5119938;27;20039;-77
2022/06/04 10:07:38;;;;;;;12.77;5.47;;;;;;;22.22;49.29;101649.94;5103425;27;20059;-77
2022/06/04 10:10:41;;;;;;;18.48;6.18;;;;;;;22.30;49.39;101645.25;5094402;27;20039;-76
2022/06/04 10:15:56;;;;;;;11.15;6.65;;;;;;;22.43;49.75;101646.97;5118443;27;20104;-76
2022/06/04 10:18:22;;;;;;;9.93;6.68;;;;;;;22.48;50.28;101655.06;5118930;27;20508;-77
2022/06/04 10:20:55;;;;;;;16.60;6.20;;;;;;;22.29;50.32;101651.53;5116181;27;20322;-76
2022/06/04 10:23:21;;;;;;;10.45;7.03;;;;;;;22.53;48.15;101649.16;5098455;27;20077;-76
2022/06/04 10:26:09;;;;;;;10.40;5.80;;;;;;;22.90;49.57;101654.53;5108374;27;20031;-77
2022/06/04 10:28:56;;;;;;;12.13;5.60;;;;;;;23.00;48.35;101654.84;5119899;27;20035;-76
2022/06/04 10:31:38;;;;;;;12.05;6.55;;;;;;;23.12;49.06;101650.47;5106780;27;20043;-77
2022/06/04 10:34:06;;;;;;;13.27;6.05;;;;;;;23.25;48.46;101652.19;5107387;27;20114;-77
2022/06/04 10:36:47;;;;;;;16.92;6.93;;;;;;;23.15;47.48;101659.81;5108694;27;20080;-77
2022/06/04 10:39:38;;;;;;;14.15;6.43;;;;;;;23.32;48.07;101660.84;5104811;27;20831;-78
2022/06/04 10:42:22;;;;;;;16.13;8.13;;;;;;;23.21;47.15;101648.34;5118853;27;20707;-76
2022/06/04 10:45:19;;;;;;;9.30;6.18;;;;;;;23.69;47.24;101650.22;5115100;27;20101;-77
2022/06/04 10:48:17;;;;;;;9.38;6.68;;;;;;;23.71;47.44;101652.66;5101585;27;20043;-78
2022/06/04 10:51:26;;;;;;;16.30;5.70;;;;;;;23.97;47.15;101645.44;5120813;27;20394;-77
2022/06/04 10:54:14;;;;;;;13.10;7.05;;;;;;;23.66;46.93;101650.69;5103437;27;20046;-76
2022/06/04 10:56:51;;;;;;;9.85;5.25;;;;;;;23.86;46.82;101645.16;5126184;27;20050;-77
2022/06/04 10:59:56;;;;;;;12.45;6.30;;;;;;;23.71;46.77;101650.00;5109158;27;20030;-78
2022/06/04 11:02:31;;;;;;;12.23;6.40;;;;;;;23.74;46.56;101649.56;5123579;27;20048;-77
2022/06/04 11:05:02;;;;;;;14.43;6.85;;;;;;;23.67;48.48;101640.91;5123819;27;21443;-77
2022/06/04 11:07:58;;;;;;;13.40;6.88;;;;;;;24.09;47.25;101652.41;5124147;27;20480;-78
2022/06/04 11:10:50;;;;;;;18.55;6.50;;;;;;;24.48;46.09;101644.06;5123157;27;20039;-78
2022/06/04 11:13:33;;;;;;;9.63;5.85;;;;;;;24.15;46.47;101653.34;5092412;27;20052;-77
2022/06/04 11:16:09;;;;;;;10.10;5.97;;;;;;;24.07;46.51;101643.88;5123271;27;20050;-78
2022/06/04 11:18:43;;;;;;;10.23;5.30;;;;;;;24.45;47.10;101640.03;5097465;27;20091;-79
2022/06/04 11:21:36;;;;;;;13.55;6.22;;;;;;;24.85;46.09;101634.06;5098164;27;20067;-78
2022/06/04 11:24:07;;;;;;;;;;;;;;;25.08;46.36;101637.75;5118310;27;20039;-79
2022/06/04 11:26:59;;;;;;;9.07;5.78;;;;;;;24.77;44.74;101637.09;5107093;27;19916;-76
2022/06/04 11:29:25;;;;;;;11.45;6.03;;;;;;;24.79;44.67;101637.66;5124183;27;20031;-78
2022/06/04 11:32:02;;;;;;;8.88;5.82;;;;;;;24.70;45.53;101640.91;5123575;27;20142;-77
2022/06/04 11:34:37;;;;;;;14.50;5.82;;;;;;;24.60;48.03;101636.97;5120025;27;20073;-77
2022/06/04 11:37:21;;;;;;;7.55;5.45;;;;;;;24.83;45.86;101643.31;5120305;27;20027;-79
2022/06/04 11:40:05;;;;;;;6.50;5.10;;;;;;;25.16;45.10;101637.38;5107187;27;20048;-78
2022/06/04 11:42:36;;;;;;;9.55;5.53;;;;;;;25.20;45.17;101648.34;5108478;27;20479;-77
2022/06/04 11:45:27;;;;;;;12.75;5.03;;;;;;;25.38;45.61;101648.22;5104264;27;20054;-78
2022/06/04 11:48:10;;;;;;;8.10;5.45;;;;;;;25.74;44.05;101650.78;5120554;27;20031;-79
2022/06/04 11:50:55;;;;;;;12.48;4.78;;;;;;;25.66;44.60;101653.81;5111496;27;20031;-79
2022/06/04 11:53:39;;;;;;;10.75;5.10;;;;;;;25.61;44.11;101642.03;5111126;27;20087;-78
2022/06/04 11:56:32;;;;;;;12.85;6.45;;;;;;;25.52;43.41;101655.91;5109718;27;20035;-77